sensor_id;sensor_type;location;lat;lon;timestamp;P1;durP1;ratioP1;P2;durP2;ratioP2
21591;SDS011;10958;50.892;3.992;2023-03-15T00:01:26;6.80;;;2.03;;
21591;SDS011;10958;50.892;3.992;2023-03-15T00:03:52;9.10;;;2.13;;
21591;SDS011;10958;50.892;3.992;2023-03-15T00:06:20;4.93;;;1.55;;
21591;SDS011;10958;50.892;3.992;2023-03-15T00:08:47;11.68;;;2.05;;
21591;SDS011;10958;50.892;3.992;2023-03-15T00:11:15;9.10;;;1.98;;
21591;SDS011;10958;50.892;3.992;2023-03-15T00:13:41;9.32;;;1.92;;
21591;SDS011;10958;50.892;3.992;2023-03-15T00:16:07;7.35;;;2.53;;
21591;SDS011;10958;50.892;3.992;2023-03-15T00:18:33;6.57;;;2.08;;
21591;SDS011;10958;50.892;3.992;2023-03-15T00:20:59;6.45;;;1.98;;
21591;SDS011;10958;50.892;3.992;2023-03-15T00:23:25;9.43;;;2.20;;
21591;SDS011;10958;50.892;3.992;2023-03-15T00:25:53;5.35;;;2.08;;
21591;SDS011;10958;50.892;3.992;2023-03-15T00:28:21;7.18;;;1.92;;
21591;SDS011;10958;50.892;3.992;2023-03-15T00:30:47;6.38;;;1.80;;
21591;SDS011;10958;50.892;3.992;2023-03-15T00:33:13;5.03;;;1.73;;
21591;SDS011;10958;50.892;3.992;2023-03-15T00:35:40;9.32;;;1.80;;
21591;SDS011;10958;50.892;3.992;2023-03-15T00:38:07;5.57;;;1.50;;
21591;SDS011;10958;50.892;3.992;2023-03-15T00:40:33;3.17;;;1.40;;
21591;SDS011;10958;50.892;3.992;2023-03-15T00:43:03;1.88;;;0.95;;
21591;SDS011;10958;50.892;3.992;2023-03-15T00:45:31;2.35;;;1.02;;
21591;SDS011;10958;50.892;3.992;2023-03-15T00:47:57;4.10;;;1.13;;
21591;SDS011;10958;50.892;3.992;2023-03-15T00:50:23;0.95;;;0.80;;
21591;SDS011;10958;50.892;3.992;2023-03-15T00:52:49;2.70;;;0.90;;
21591;SDS011;10958;50.892;3.992;2023-03-15T00:55:17;3.03;;;1.13;;
21591;SDS011;10958;50.892;3.992;2023-03-15T00:57:44;3.70;;;1.30;;
21591;SDS011;10958;50.892;3.992;2023-03-15T01:00:12;1.65;;;0.93;;
21591;SDS011;10958;50.892;3.992;2023-03-15T01:02:41;6.15;;;1.20;;
21591;SDS011;10958;50.892;3.992;2023-03-15T01:05:07;2.55;;;1.30;;
21591;SDS011;10958;50.892;3.992;2023-03-15T01:07:34;4.28;;;1.38;;
21591;SDS011;10958;50.892;3.992;2023-03-15T01:10:01;4.03;;;1.33;;
21591;SDS011;10958;50.892;3.992;2023-03-15T01:12:29;4.20;;;1.40;;
21591;SDS011;10958;50.892;3.992;2023-03-15T01:14:56;3.45;;;1.15;;
21591;SDS011;10958;50.892;3.992;2023-03-15T01:17:22;4.45;;;1.52;;
21591;SDS011;10958;50.892;3.992;2023-03-15T01:19:48;8.90;;;1.98;;
21591;SDS011;10958;50.892;3.992;2023-03-15T01:22:15;5.25;;;1.67;;
21591;SDS011;10958;50.892;3.992;2023-03-15T01:24:42;5.78;;;1.67;;
21591;SDS011;10958;50.892;3.992;2023-03-15T01:27:07;2.47;;;1.42;;
21591;SDS011;10958;50.892;3.992;2023-03-15T01:29:33;7.15;;;1.55;;
21591;SDS011;10958;50.892;3.992;2023-03-15T01:31:59;5.75;;;1.35;;
21591;SDS011;10958;50.892;3.992;2023-03-15T01:34:25;3.45;;;1.45;;
21591;SDS011;10958;50.892;3.992;2023-03-15T01:36:50;5.32;;;1.90;;
21591;SDS011;10958;50.892;3.992;2023-03-15T01:39:19;4.63;;;1.60;;
21591;SDS011;10958;50.892;3.992;2023-03-15T01:41:45;6.05;;;1.38;;
21591;SDS011;10958;50.892;3.992;2023-03-15T01:44:12;4.78;;;1.90;;
21591;SDS011;10958;50.892;3.992;2023-03-15T01:46:42;6.40;;;2.00;;
21591;SDS011;10958;50.892;3.992;2023-03-15T01:54:18;4.63;;;1.63;;
21591;SDS011;10958;50.892;3.992;2023-03-15T01:56:59;7.38;;;1.60;;
21591;SDS011;10958;50.892;3.992;2023-03-15T01:59:57;6.65;;;2.08;;
21591;SDS011;10958;50.892;3.992;2023-03-15T02:02:32;9.15;;;2.00;;
21591;SDS011;10958;50.892;3.992;2023-03-15T02:04:59;5.35;;;1.60;;
21591;SDS011;10958;50.892;3.992;2023-03-15T02:07:30;3.65;;;1.58;;
21591;SDS011;10958;50.892;3.992;2023-03-15T02:10:19;6.97;;;1.42;;
21591;SDS011;10958;50.892;3.992;2023-03-15T02:12:53;5.80;;;1.77;;
21591;SDS011;10958;50.892;3.992;2023-03-15T02:15:20;3.35;;;1.50;;
21591;SDS011;10958;50.892;3.992;2023-03-15T02:17:46;6.45;;;2.08;;
21591;SDS011;10958;50.892;3.992;2023-03-15T02:23:07;5.18;;;1.90;;
21591;SDS011;10958;50.892;3.992;2023-03-15T02:28:16;4.90;;;1.75;;
21591;SDS011;10958;50.892;3.992;2023-03-15T02:30:43;4.40;;;2.08;;
21591;SDS011;10958;50.892;3.992;2023-03-15T02:33:12;6.15;;;2.20;;
21591;SDS011;10958;50.892;3.992;2023-03-15T02:35:47;5.85;;;2.28;;
21591;SDS011;10958;50.892;3.992;2023-03-15T02:38:13;7.07;;;2.38;;
21591;SDS011;10958;50.892;3.992;2023-03-15T02:40:39;6.00;;;2.70;;
21591;SDS011;10958;50.892;3.992;2023-03-15T02:43:06;11.23;;;3.53;;
21591;SDS011;10958;50.892;3.992;2023-03-15T02:45:35;7.25;;;2.97;;
21591;SDS011;10958;50.892;3.992;2023-03-15T02:48:03;7.65;;;3.00;;
21591;SDS011;10958;50.892;3.992;2023-03-15T02:50:35;10.55;;;3.35;;
21591;SDS011;10958;50.892;3.992;2023-03-15T02:53:03;8.68;;;3.85;;
21591;SDS011;10958;50.892;3.992;2023-03-15T02:55:29;7.90;;;3.45;;
21591;SDS011;10958;50.892;3.992;2023-03-15T02:57:59;8.40;;;3.70;;
21591;SDS011;10958;50.892;3.992;2023-03-15T03:00:26;8.48;;;3.50;;
21591;SDS011;10958;50.892;3.992;2023-03-15T03:02:52;7.50;;;3.20;;
21591;SDS011;10958;50.892;3.992;2023-03-15T03:05:18;5.63;;;3.00;;
21591;SDS011;10958;50.892;3.992;2023-03-15T03:07:45;6.45;;;2.88;;
21591;SDS011;10958;50.892;3.992;2023-03-15T03:10:14;7.35;;;3.17;;
21591;SDS011;10958;50.892;3.992;2023-03-15T03:12:43;9.52;;;3.28;;
21591;SDS011;10958;50.892;3.992;2023-03-15T03:15:09;6.83;;;2.83;;
21591;SDS011;10958;50.892;3.992;2023-03-15T03:17:36;10.57;;;3.30;;
21591;SDS011;10958;50.892;3.992;2023-03-15T03:20:03;6.00;;;3.53;;
21591;SDS011;10958;50.892;3.992;2023-03-15T03:22:32;8.48;;;4.03;;
21591;SDS011;10958;50.892;3.992;2023-03-15T03:24:58;6.32;;;3.75;;
21591;SDS011;10958;50.892;3.992;2023-03-15T03:27:25;7.80;;;3.83;;
21591;SDS011;10958;50.892;3.992;2023-03-15T03:32:19;6.60;;;3.58;;
21591;SDS011;10958;50.892;3.992;2023-03-15T03:34:46;9.88;;;4.25;;
21591;SDS011;10958;50.892;3.992;2023-03-15T03:37:16;9.18;;;4.03;;
21591;SDS011;10958;50.892;3.992;2023-03-15T03:39:42;8.13;;;4.30;;
21591;SDS011;10958;50.892;3.992;2023-03-15T03:42:08;12.85;;;4.78;;
21591;SDS011;10958;50.892;3.992;2023-03-15T03:44:34;8.57;;;4.50;;
21591;SDS011;10958;50.892;3.992;2023-03-15T03:47:00;7.60;;;4.40;;
21591;SDS011;10958;50.892;3.992;2023-03-15T03:49:26;11.20;;;4.68;;
21591;SDS011;10958;50.892;3.992;2023-03-15T03:51:51;9.55;;;3.70;;
21591;SDS011;10958;50.892;3.992;2023-03-15T03:54:17;9.10;;;3.78;;
21591;SDS011;10958;50.892;3.992;2023-03-15T03:56:45;8.45;;;3.47;;
21591;SDS011;10958;50.892;3.992;2023-03-15T03:59:12;10.82;;;3.75;;
21591;SDS011;10958;50.892;3.992;2023-03-15T04:01:39;8.52;;;3.78;;
21591;SDS011;10958;50.892;3.992;2023-03-15T04:04:06;10.82;;;3.85;;
21591;SDS011;10958;50.892;3.992;2023-03-15T04:06:32;10.63;;;3.83;;
21591;SDS011;10958;50.892;3.992;2023-03-15T04:08:58;7.20;;;3.90;;
21591;SDS011;10958;50.892;3.992;2023-03-15T04:11:28;6.90;;;3.72;;
21591;SDS011;10958;50.892;3.992;2023-03-15T04:13:53;6.50;;;3.70;;
21591;SDS011;10958;50.892;3.992;2023-03-15T04:16:19;9.95;;;4.05;;
21591;SDS011;10958;50.892;3.992;2023-03-15T04:18:46;10.45;;;3.75;;
21591;SDS011;10958;50.892;3.992;2023-03-15T04:21:12;8.65;;;3.80;;
21591;SDS011;10958;50.892;3.992;2023-03-15T04:23:37;11.60;;;3.30;;
21591;SDS011;10958;50.892;3.992;2023-03-15T04:26:03;9.55;;;3.85;;
21591;SDS011;10958;50.892;3.992;2023-03-15T04:28:30;6.47;;;3.15;;
21591;SDS011;10958;50.892;3.992;2023-03-15T04:30:56;15.48;;;4.05;;
21591;SDS011;10958;50.892;3.992;2023-03-15T04:33:26;8.00;;;3.20;;
21591;SDS011;10958;50.892;3.992;2023-03-15T04:35:52;10.68;;;3.65;;
21591;SDS011;10958;50.892;3.992;2023-03-15T04:38:18;8.82;;;3.42;;
21591;SDS011;10958;50.892;3.992;2023-03-15T04:40:51;7.22;;;3.63;;
21591;SDS011;10958;50.892;3.992;2023-03-15T04:43:18;12.60;;;3.63;;
21591;SDS011;10958;50.892;3.992;2023-03-15T04:45:44;7.30;;;3.30;;
21591;SDS011;10958;50.892;3.992;2023-03-15T04:48:11;6.60;;;3.60;;
21591;SDS011;10958;50.892;3.992;2023-03-15T04:50:36;9.00;;;3.78;;
21591;SDS011;10958;50.892;3.992;2023-03-15T04:53:02;6.93;;;3.80;;
21591;SDS011;10958;50.892;3.992;2023-03-15T04:55:30;5.97;;;3.40;;
21591;SDS011;10958;50.892;3.992;2023-03-15T04:57:56;4.90;;;2.50;;
21591;SDS011;10958;50.892;3.992;2023-03-15T05:00:22;6.80;;;3.60;;
21591;SDS011;10958;50.892;3.992;2023-03-15T05:02:48;7.95;;;3.40;;
21591;SDS011;10958;50.892;3.992;2023-03-15T05:05:19;9.32;;;3.22;;
21591;SDS011;10958;50.892;3.992;2023-03-15T05:07:47;7.68;;;3.30;;
21591;SDS011;10958;50.892;3.992;2023-03-15T05:10:12;6.75;;;3.40;;
21591;SDS011;10958;50.892;3.992;2023-03-15T05:12:38;9.43;;;3.88;;
21591;SDS011;10958;50.892;3.992;2023-03-15T05:15:07;11.45;;;3.92;;
21591;SDS011;10958;50.892;3.992;2023-03-15T05:17:33;10.23;;;4.07;;
21591;SDS011;10958;50.892;3.992;2023-03-15T05:20:02;10.00;;;4.45;;
21591;SDS011;10958;50.892;3.992;2023-03-15T05:22:36;10.60;;;4.30;;
21591;SDS011;10958;50.892;3.992;2023-03-15T05:25:02;7.95;;;4.90;;
21591;SDS011;10958;50.892;3.992;2023-03-15T05:27:28;7.85;;;4.50;;
21591;SDS011;10958;50.892;3.992;2023-03-15T05:29:54;7.88;;;4.28;;
21591;SDS011;10958;50.892;3.992;2023-03-15T05:32:22;8.98;;;5.25;;
21591;SDS011;10958;50.892;3.992;2023-03-15T05:34:50;10.37;;;4.27;;
21591;SDS011;10958;50.892;3.992;2023-03-15T05:37:20;8.98;;;4.63;;
21591;SDS011;10958;50.892;3.992;2023-03-15T05:39:46;11.85;;;4.68;;
21591;SDS011;10958;50.892;3.992;2023-03-15T05:42:17;9.93;;;4.88;;
21591;SDS011;10958;50.892;3.992;2023-03-15T05:44:49;9.13;;;5.38;;
21591;SDS011;10958;50.892;3.992;2023-03-15T05:47:15;10.60;;;5.05;;
21591;SDS011;10958;50.892;3.992;2023-03-15T05:49:40;9.82;;;6.00;;
21591;SDS011;10958;50.892;3.992;2023-03-15T05:52:06;10.15;;;5.93;;
21591;SDS011;10958;50.892;3.992;2023-03-15T05:54:32;10.82;;;5.80;;
21591;SDS011;10958;50.892;3.992;2023-03-15T05:56:58;12.57;;;6.60;;
21591;SDS011;10958;50.892;3.992;2023-03-15T05:59:26;16.52;;;5.78;;
21591;SDS011;10958;50.892;3.992;2023-03-15T06:01:51;17.77;;;6.18;;
21591;SDS011;10958;50.892;3.992;2023-03-15T06:04:18;12.75;;;6.00;;
21591;SDS011;10958;50.892;3.992;2023-03-15T06:06:44;15.52;;;6.75;;
21591;SDS011;10958;50.892;3.992;2023-03-15T06:09:10;13.70;;;7.00;;
21591;SDS011;10958;50.892;3.992;2023-03-15T06:11:36;11.55;;;7.00;;
21591;SDS011;10958;50.892;3.992;2023-03-15T06:14:02;9.35;;;6.47;;
21591;SDS011;10958;50.892;3.992;2023-03-15T06:16:28;13.68;;;8.30;;
21591;SDS011;10958;50.892;3.992;2023-03-15T06:18:54;15.32;;;6.93;;
21591;SDS011;10958;50.892;3.992;2023-03-15T06:21:20;13.13;;;7.05;;
21591;SDS011;10958;50.892;3.992;2023-03-15T06:23:46;10.95;;;7.07;;
21591;SDS011;10958;50.892;3.992;2023-03-15T06:26:11;14.88;;;7.25;;
21591;SDS011;10958;50.892;3.992;2023-03-15T06:28:39;9.60;;;6.90;;
21591;SDS011;10958;50.892;3.992;2023-03-15T06:31:08;16.42;;;7.07;;
21591;SDS011;10958;50.892;3.992;2023-03-15T06:33:37;13.48;;;6.82;;
21591;SDS011;10958;50.892;3.992;2023-03-15T06:36:06;13.80;;;7.50;;
21591;SDS011;10958;50.892;3.992;2023-03-15T06:38:32;16.00;;;7.90;;
21591;SDS011;10958;50.892;3.992;2023-03-15T06:40:58;20.65;;;6.95;;
21591;SDS011;10958;50.892;3.992;2023-03-15T06:43:29;16.23;;;6.97;;
21591;SDS011;10958;50.892;3.992;2023-03-15T06:45:56;12.65;;;7.45;;
21591;SDS011;10958;50.892;3.992;2023-03-15T06:48:33;14.85;;;7.38;;
21591;SDS011;10958;50.892;3.992;2023-03-15T06:51:13;12.77;;;7.68;;
21591;SDS011;10958;50.892;3.992;2023-03-15T06:53:50;14.48;;;8.07;;
21591;SDS011;10958;50.892;3.992;2023-03-15T06:56:26;15.35;;;6.88;;
21591;SDS011;10958;50.892;3.992;2023-03-15T06:58:52;11.40;;;6.82;;
21591;SDS011;10958;50.892;3.992;2023-03-15T07:01:18;12.07;;;5.93;;
21591;SDS011;10958;50.892;3.992;2023-03-15T07:03:45;10.55;;;4.90;;
21591;SDS011;10958;50.892;3.992;2023-03-15T07:06:11;7.10;;;4.05;;
21591;SDS011;10958;50.892;3.992;2023-03-15T07:08:37;7.20;;;3.75;;
21591;SDS011;10958;50.892;3.992;2023-03-15T07:11:11;5.45;;;3.08;;
21591;SDS011;10958;50.892;3.992;2023-03-15T07:13:54;7.57;;;3.40;;
21591;SDS011;10958;50.892;3.992;2023-03-15T07:16:47;6.70;;;3.97;;
21591;SDS011;10958;50.892;3.992;2023-03-15T07:19:16;9.70;;;4.43;;
21591;SDS011;10958;50.892;3.992;2023-03-15T07:21:57;6.00;;;3.40;;
21591;SDS011;10958;50.892;3.992;2023-03-15T07:27:09;5.25;;;2.83;;
21591;SDS011;10958;50.892;3.992;2023-03-15T07:32:38;5.13;;;2.38;;
21591;SDS011;10958;50.892;3.992;2023-03-15T07:35:04;4.43;;;2.30;;
21591;SDS011;10958;50.892;3.992;2023-03-15T07:37:47;4.15;;;2.40;;
21591;SDS011;10958;50.892;3.992;2023-03-15T07:42:44;4.70;;;2.80;;
21591;SDS011;10958;50.892;3.992;2023-03-15T07:45:19;5.05;;;2.90;;
21591;SDS011;10958;50.892;3.992;2023-03-15T07:48:20;3.67;;;2.45;;
21591;SDS011;10958;50.892;3.992;2023-03-15T07:50:53;6.00;;;2.93;;
21591;SDS011;10958;50.892;3.992;2023-03-15T07:53:19;8.20;;;3.35;;
21591;SDS011;10958;50.892;3.992;2023-03-15T07:55:46;9.43;;;3.40;;
21591;SDS011;10958;50.892;3.992;2023-03-15T07:58:14;6.20;;;3.42;;
21591;SDS011;10958;50.892;3.992;2023-03-15T08:00:40;8.43;;;3.40;;
21591;SDS011;10958;50.892;3.992;2023-03-15T08:03:06;5.60;;;3.15;;
21591;SDS011;10958;50.892;3.992;2023-03-15T08:05:32;7.05;;;3.58;;
21591;SDS011;10958;50.892;3.992;2023-03-15T08:07:59;5.78;;;3.22;;
21591;SDS011;10958;50.892;3.992;2023-03-15T08:10:25;5.25;;;2.80;;
21591;SDS011;10958;50.892;3.992;2023-03-15T08:12:51;6.90;;;2.95;;
21591;SDS011;10958;50.892;3.992;2023-03-15T08:15:20;5.03;;;2.47;;
21591;SDS011;10958;50.892;3.992;2023-03-15T08:17:46;4.70;;;2.50;;
21591;SDS011;10958;50.892;3.992;2023-03-15T08:20:13;6.00;;;2.60;;
21591;SDS011;10958;50.892;3.992;2023-03-15T08:22:43;3.72;;;2.60;;
21591;SDS011;10958;50.892;3.992;2023-03-15T08:25:14;6.15;;;2.92;;
21591;SDS011;10958;50.892;3.992;2023-03-15T08:27:49;3.95;;;2.05;;
21591;SDS011;10958;50.892;3.992;2023-03-15T08:30:16;4.13;;;2.50;;
21591;SDS011;10958;50.892;3.992;2023-03-15T08:32:44;4.20;;;2.28;;
21591;SDS011;10958;50.892;3.992;2023-03-15T08:35:11;3.15;;;1.95;;
21591;SDS011;10958;50.892;3.992;2023-03-15T08:37:41;4.13;;;1.75;;
21591;SDS011;10958;50.892;3.992;2023-03-15T08:40:12;6.35;;;2.25;;
21591;SDS011;10958;50.892;3.992;2023-03-15T08:42:39;5.47;;;2.20;;
21591;SDS011;10958;50.892;3.992;2023-03-15T08:45:08;3.15;;;1.85;;
21591;SDS011;10958;50.892;3.992;2023-03-15T08:47:34;4.32;;;1.85;;
21591;SDS011;10958;50.892;3.992;2023-03-15T08:50:01;3.13;;;1.80;;
21591;SDS011;10958;50.892;3.992;2023-03-15T08:52:32;3.83;;;1.63;;
21591;SDS011;10958;50.892;3.992;2023-03-15T08:55:00;4.53;;;2.17;;
21591;SDS011;10958;50.892;3.992;2023-03-15T08:57:27;3.35;;;1.90;;
21591;SDS011;10958;50.892;3.992;2023-03-15T08:59:57;2.00;;;1.10;;
21591;SDS011;10958;50.892;3.992;2023-03-15T09:02:25;5.63;;;1.20;;
21591;SDS011;10958;50.892;3.992;2023-03-15T09:04:53;2.40;;;1.33;;
21591;SDS011;10958;50.892;3.992;2023-03-15T09:07:19;3.65;;;0.85;;
21591;SDS011;10958;50.892;3.992;2023-03-15T09:09:45;3.55;;;1.20;;
21591;SDS011;10958;50.892;3.992;2023-03-15T09:12:16;4.05;;;1.20;;
21591;SDS011;10958;50.892;3.992;2023-03-15T09:14:42;3.38;;;1.17;;
21591;SDS011;10958;50.892;3.992;2023-03-15T09:17:08;5.65;;;1.55;;
21591;SDS011;10958;50.892;3.992;2023-03-15T09:19:34;5.43;;;1.35;;
21591;SDS011;10958;50.892;3.992;2023-03-15T09:22:00;2.53;;;1.10;;
21591;SDS011;10958;50.892;3.992;2023-03-15T09:24:27;3.63;;;1.13;;
21591;SDS011;10958;50.892;3.992;2023-03-15T09:26:53;5.35;;;1.30;;
21591;SDS011;10958;50.892;3.992;2023-03-15T09:29:20;2.50;;;1.10;;
21591;SDS011;10958;50.892;3.992;2023-03-15T09:31:46;16.23;;;1.88;;
21591;SDS011;10958;50.892;3.992;2023-03-15T09:34:12;4.35;;;1.27;;
21591;SDS011;10958;50.892;3.992;2023-03-15T09:36:38;4.57;;;1.50;;
21591;SDS011;10958;50.892;3.992;2023-03-15T09:39:06;3.97;;;1.48;;
21591;SDS011;10958;50.892;3.992;2023-03-15T09:41:40;5.95;;;1.52;;
21591;SDS011;10958;50.892;3.992;2023-03-15T09:47:07;8.68;;;2.33;;
21591;SDS011;10958;50.892;3.992;2023-03-15T09:49:40;5.13;;;2.55;;
21591;SDS011;10958;50.892;3.992;2023-03-15T09:54:45;8.30;;;3.40;;
21591;SDS011;10958;50.892;3.992;2023-03-15T09:57:18;7.90;;;3.10;;
21591;SDS011;10958;50.892;3.992;2023-03-15T09:59:50;11.30;;;3.65;;
21591;SDS011;10958;50.892;3.992;2023-03-15T10:02:28;8.20;;;3.17;;
21591;SDS011;10958;50.892;3.992;2023-03-15T10:05:10;9.52;;;3.40;;
21591;SDS011;10958;50.892;3.992;2023-03-15T10:07:40;9.48;;;3.20;;
21591;SDS011;10958;50.892;3.992;2023-03-15T10:10:23;5.97;;;2.25;;
21591;SDS011;10958;50.892;3.992;2023-03-15T10:13:02;7.00;;;2.78;;
21591;SDS011;10958;50.892;3.992;2023-03-15T10:15:38;9.32;;;2.38;;
21591;SDS011;10958;50.892;3.992;2023-03-15T10:18:16;6.15;;;2.50;;
21591;SDS011;10958;50.892;3.992;2023-03-15T10:21:03;4.68;;;1.90;;
21591;SDS011;10958;50.892;3.992;2023-03-15T10:24:13;7.57;;;2.83;;
21591;SDS011;10958;50.892;3.992;2023-03-15T10:26:37;6.00;;;2.13;;
21591;SDS011;10958;50.892;3.992;2023-03-15T10:29:07;5.75;;;1.88;;
21591;SDS011;10958;50.892;3.992;2023-03-15T10:31:41;6.65;;;2.38;;
21591;SDS011;10958;50.892;3.992;2023-03-15T10:36:36;10.30;;;4.03;;
21591;SDS011;10958;50.892;3.992;2023-03-15T10:39:02;7.20;;;2.33;;
21591;SDS011;10958;50.892;3.992;2023-03-15T10:41:37;6.57;;;2.13;;
21591;SDS011;10958;50.892;3.992;2023-03-15T10:44:17;4.07;;;1.33;;
21591;SDS011;10958;50.892;3.992;2023-03-15T10:47:01;3.70;;;1.30;;
21591;SDS011;10958;50.892;3.992;2023-03-15T10:49:35;2.50;;;1.25;;
21591;SDS011;10958;50.892;3.992;2023-03-15T10:52:02;3.47;;;1.77;;
21591;SDS011;10958;50.892;3.992;2023-03-15T10:54:30;3.65;;;1.20;;
21591;SDS011;10958;50.892;3.992;2023-03-15T10:57:14;3.78;;;1.20;;
21591;SDS011;10958;50.892;3.992;2023-03-15T10:59:59;3.40;;;1.40;;
21591;SDS011;10958;50.892;3.992;2023-03-15T11:03:45;2.75;;;1.42;;
21591;SDS011;10958;50.892;3.992;2023-03-15T11:09:24;7.78;;;1.50;;
21591;SDS011;10958;50.892;3.992;2023-03-15T11:14:41;5.00;;;1.17;;
21591;SDS011;10958;50.892;3.992;2023-03-15T11:17:19;2.38;;;0.98;;
21591;SDS011;10958;50.892;3.992;2023-03-15T11:22:55;1.73;;;0.75;;
21591;SDS011;10958;50.892;3.992;2023-03-15T11:25:25;3.45;;;0.90;;
21591;SDS011;10958;50.892;3.992;2023-03-15T11:27:55;1.80;;;0.70;;
21591;SDS011;10958;50.892;3.992;2023-03-15T11:30:24;1.50;;;0.85;;
21591;SDS011;10958;50.892;3.992;2023-03-15T11:32:53;1.75;;;0.90;;
21591;SDS011;10958;50.892;3.992;2023-03-15T11:35:23;4.15;;;0.70;;
21591;SDS011;10958;50.892;3.992;2023-03-15T11:37:56;3.88;;;1.75;;
21591;SDS011;10958;50.892;3.992;2023-03-15T11:40:29;3.83;;;1.20;;
21591;SDS011;10958;50.892;3.992;2023-03-15T11:43:03;2.15;;;1.48;;
21591;SDS011;10958;50.892;3.992;2023-03-15T11:45:42;3.03;;;1.15;;
21591;SDS011;10958;50.892;3.992;2023-03-15T11:48:18;3.13;;;1.33;;
21591;SDS011;10958;50.892;3.992;2023-03-15T11:50:46;1.20;;;0.93;;
21591;SDS011;10958;50.892;3.992;2023-03-15T11:53:13;3.67;;;1.00;;
21591;SDS011;10958;50.892;3.992;2023-03-15T11:55:46;6.13;;;1.35;;
21591;SDS011;10958;50.892;3.992;2023-03-15T11:58:26;1.20;;;0.80;;
21591;SDS011;10958;50.892;3.992;2023-03-15T12:00:54;2.20;;;1.20;;
21591;SDS011;10958;50.892;3.992;2023-03-15T12:11:00;4.15;;;1.00;;
21591;SDS011;10958;50.892;3.992;2023-03-15T12:13:33;6.60;;;2.20;;
21591;SDS011;10958;50.892;3.992;2023-03-15T12:16:00;4.32;;;1.70;;
21591;SDS011;10958;50.892;3.992;2023-03-15T12:18:27;3.25;;;1.25;;
21591;SDS011;10958;50.892;3.992;2023-03-15T12:21:08;2.35;;;1.13;;
21591;SDS011;10958;50.892;3.992;2023-03-15T12:23:42;3.42;;;1.10;;
21591;SDS011;10958;50.892;3.992;2023-03-15T12:26:14;2.80;;;1.15;;
21591;SDS011;10958;50.892;3.992;2023-03-15T12:29:06;2.35;;;0.80;;
21591;SDS011;10958;50.892;3.992;2023-03-15T12:31:42;4.68;;;1.00;;
21591;SDS011;10958;50.892;3.992;2023-03-15T12:37:12;6.10;;;1.30;;
21591;SDS011;10958;50.892;3.992;2023-03-15T12:45:32;6.75;;;2.75;;
21591;SDS011;10958;50.892;3.992;2023-03-15T12:53:54;5.35;;;1.17;;
21591;SDS011;10958;50.892;3.992;2023-03-15T12:56:08;2.80;;;1.25;;
21591;SDS011;10958;50.892;3.992;2023-03-15T12:58:41;2.83;;;1.35;;
21591;SDS011;10958;50.892;3.992;2023-03-15T13:01:10;5.75;;;1.13;;
21591;SDS011;10958;50.892;3.992;2023-03-15T13:03:40;2.88;;;0.80;;
21591;SDS011;10958;50.892;3.992;2023-03-15T13:23:33;4.93;;;1.52;;
21591;SDS011;10958;50.892;3.992;2023-03-15T13:25:46;1.80;;;1.10;;
21591;SDS011;10958;50.892;3.992;2023-03-15T13:28:23;3.33;;;1.02;;
21591;SDS011;10958;50.892;3.992;2023-03-15T13:30:55;4.72;;;1.60;;
21591;SDS011;10958;50.892;3.992;2023-03-15T13:33:26;2.22;;;1.13;;
21591;SDS011;10958;50.892;3.992;2023-03-15T13:35:57;2.22;;;0.93;;
21591;SDS011;10958;50.892;3.992;2023-03-15T13:41:04;1.63;;;0.90;;
21591;SDS011;10958;50.892;3.992;2023-03-15T13:43:39;1.63;;;1.13;;
21591;SDS011;10958;50.892;3.992;2023-03-15T13:46:06;2.05;;;1.33;;
21591;SDS011;10958;50.892;3.992;2023-03-15T13:48:34;3.88;;;1.10;;
21591;SDS011;10958;50.892;3.992;2023-03-15T13:51:04;2.83;;;1.27;;
21591;SDS011;10958;50.892;3.992;2023-03-15T13:53:51;3.45;;;1.17;;
21591;SDS011;10958;50.892;3.992;2023-03-15T13:56:46;1.38;;;1.10;;
21591;SDS011;10958;50.892;3.992;2023-03-15T13:59:25;2.33;;;1.00;;
21591;SDS011;10958;50.892;3.992;2023-03-15T14:01:56;2.20;;;1.10;;
21591;SDS011;10958;50.892;3.992;2023-03-15T14:04:25;3.42;;;1.23;;
21591;SDS011;10958;50.892;3.992;2023-03-15T14:07:00;2.45;;;1.00;;
21591;SDS011;10958;50.892;3.992;2023-03-15T14:09:37;3.72;;;1.02;;
21591;SDS011;10958;50.892;3.992;2023-03-15T14:12:05;2.53;;;1.30;;
21591;SDS011;10958;50.892;3.992;2023-03-15T14:14:45;3.17;;;1.40;;
21591;SDS011;10958;50.892;3.992;2023-03-15T14:17:21;3.53;;;1.50;;
21591;SDS011;10958;50.892;3.992;2023-03-15T14:20:05;3.88;;;1.90;;
21591;SDS011;10958;50.892;3.992;2023-03-15T14:22:33;4.03;;;1.25;;
21591;SDS011;10958;50.892;3.992;2023-03-15T14:25:16;3.17;;;1.08;;
21591;SDS011;10958;50.892;3.992;2023-03-15T14:27:45;3.95;;;1.38;;
21591;SDS011;10958;50.892;3.992;2023-03-15T14:30:20;2.85;;;1.20;;
21591;SDS011;10958;50.892;3.992;2023-03-15T14:32:50;4.75;;;1.10;;
21591;SDS011;10958;50.892;3.992;2023-03-15T14:38:01;4.72;;;1.65;;
21591;SDS011;10958;50.892;3.992;2023-03-15T14:40:43;2.35;;;1.30;;
21591;SDS011;10958;50.892;3.992;2023-03-15T14:43:09;2.85;;;1.70;;
21591;SDS011;10958;50.892;3.992;2023-03-15T14:45:36;3.80;;;1.40;;
21591;SDS011;10958;50.892;3.992;2023-03-15T14:48:05;3.97;;;1.30;;
21591;SDS011;10958;50.892;3.992;2023-03-15T14:50:36;3.75;;;1.33;;
21591;SDS011;10958;50.892;3.992;2023-03-15T14:53:05;3.38;;;1.50;;
21591;SDS011;10958;50.892;3.992;2023-03-15T14:55:33;5.20;;;1.35;;
21591;SDS011;10958;50.892;3.992;2023-03-15T14:58:08;2.10;;;1.42;;
21591;SDS011;10958;50.892;3.992;2023-03-15T15:00:37;2.95;;;1.55;;
21591;SDS011;10958;50.892;3.992;2023-03-15T15:03:03;2.20;;;1.38;;
21591;SDS011;10958;50.892;3.992;2023-03-15T15:05:39;2.28;;;1.27;;
21591;SDS011;10958;50.892;3.992;2023-03-15T15:08:09;2.92;;;1.70;;
21591;SDS011;10958;50.892;3.992;2023-03-15T15:10:38;4.55;;;1.75;;
21591;SDS011;10958;50.892;3.992;2023-03-15T15:13:05;3.42;;;1.70;;
21591;SDS011;10958;50.892;3.992;2023-03-15T15:15:31;6.28;;;2.13;;
21591;SDS011;10958;50.892;3.992;2023-03-15T15:17:57;5.70;;;1.77;;
21591;SDS011;10958;50.892;3.992;2023-03-15T15:20:23;3.10;;;1.67;;
21591;SDS011;10958;50.892;3.992;2023-03-15T15:22:49;2.92;;;1.40;;
21591;SDS011;10958;50.892;3.992;2023-03-15T15:25:19;3.58;;;1.40;;
21591;SDS011;10958;50.892;3.992;2023-03-15T15:27:48;3.85;;;1.40;;
21591;SDS011;10958;50.892;3.992;2023-03-15T15:30:15;5.47;;;1.60;;
21591;SDS011;10958;50.892;3.992;2023-03-15T15:32:43;6.30;;;1.88;;
21591;SDS011;10958;50.892;3.992;2023-03-15T15:35:10;5.13;;;1.50;;
21591;SDS011;10958;50.892;3.992;2023-03-15T15:40:07;4.38;;;1.38;;
21591;SDS011;10958;50.892;3.992;2023-03-15T15:42:53;7.20;;;1.75;;
21591;SDS011;10958;50.892;3.992;2023-03-15T15:45:20;5.55;;;2.70;;
21591;SDS011;10958;50.892;3.992;2023-03-15T15:47:48;8.88;;;2.13;;
21591;SDS011;10958;50.892;3.992;2023-03-15T15:50:15;6.22;;;1.85;;
21591;SDS011;10958;50.892;3.992;2023-03-15T15:52:43;4.70;;;1.60;;
21591;SDS011;10958;50.892;3.992;2023-03-15T15:55:17;5.65;;;2.00;;
21591;SDS011;10958;50.892;3.992;2023-03-15T15:57:46;5.63;;;1.90;;
21591;SDS011;10958;50.892;3.992;2023-03-15T16:00:15;4.40;;;2.30;;
21591;SDS011;10958;50.892;3.992;2023-03-15T16:02:49;3.13;;;1.33;;
21591;SDS011;10958;50.892;3.992;2023-03-15T16:05:19;7.03;;;2.25;;
21591;SDS011;10958;50.892;3.992;2023-03-15T16:07:55;5.43;;;1.50;;
21591;SDS011;10958;50.892;3.992;2023-03-15T16:10:27;7.70;;;3.30;;
21591;SDS011;10958;50.892;3.992;2023-03-15T16:12:59;6.97;;;2.90;;
21591;SDS011;10958;50.892;3.992;2023-03-15T16:15:27;4.53;;;1.70;;
21591;SDS011;10958;50.892;3.992;2023-03-15T16:17:53;4.90;;;1.80;;
21591;SDS011;10958;50.892;3.992;2023-03-15T16:20:19;11.93;;;8.10;;
21591;SDS011;10958;50.892;3.992;2023-03-15T16:22:46;9.35;;;3.30;;
21591;SDS011;10958;50.892;3.992;2023-03-15T16:25:19;16.75;;;9.82;;
21591;SDS011;10958;50.892;3.992;2023-03-15T16:27:51;7.30;;;3.45;;